createdAt,value
2018-06-14T06:54:48.619Z,20
2018-06-14T06:55:08.777Z,20
2018-06-14T06:55:28.929Z,25
2018-06-14T06:56:46.916Z,25
2018-06-14T06:57:07.132Z,25
2018-06-14T06:57:49.181Z,25
2018-06-14T06:58:09.348Z,25
2018-06-14T06:58:29.509Z,25
2018-06-14T06:59:10.206Z,25
2018-06-14T06:59:30.384Z,25
2018-06-14T06:59:50.552Z,25
2018-06-14T07:00:10.715Z,25
2018-06-14T07:00:30.885Z,25
2018-06-14T07:00:51.029Z,25
2018-06-14T07:01:11.203Z,25
2018-06-14T07:01:31.379Z,25
2018-06-14T07:01:51.542Z,25
2018-06-14T07:02:11.708Z,25
2018-06-14T07:02:31.904Z,25
2018-06-14T07:02:52.134Z,25
2018-06-14T07:03:12.290Z,25
2018-06-14T07:03:32.452Z,25
2018-06-14T07:03:52.616Z,25
2018-06-14T07:04:12.777Z,25
2018-06-14T07:04:32.946Z,25
2018-06-14T07:04:53.083Z,25
2018-06-14T07:05:13.231Z,25
2018-06-14T07:05:33.381Z,25
2018-06-14T07:05:53.606Z,25
2018-06-14T07:06:13.845Z,25
2018-06-14T07:06:34.037Z,25
2018-06-14T07:06:54.127Z,25
2018-06-14T07:07:14.298Z,25
2018-06-14T07:07:34.470Z,25
2018-06-14T07:07:54.636Z,25
2018-06-14T07:08:14.791Z,25
2018-06-14T07:08:34.950Z,25
2018-06-14T07:08:55.141Z,25
2018-06-14T07:09:15.303Z,25
2018-06-14T07:09:35.457Z,25
2018-06-14T07:09:55.611Z,25
2018-06-14T07:10:15.763Z,25
2018-06-14T07:10:35.910Z,25
2018-06-14T07:10:56.056Z,25
2018-06-14T07:11:16.216Z,25
2018-06-14T07:11:36.403Z,25
2018-06-14T07:11:56.633Z,25
2018-06-14T07:12:16.757Z,25
2018-06-14T07:12:36.910Z,25
2018-06-14T07:12:57.064Z,25
2018-06-14T07:13:17.271Z,25
2018-06-14T07:13:37.420Z,25
2018-06-14T07:13:57.578Z,25
2018-06-14T07:14:17.737Z,25
2018-06-14T07:14:37.905Z,25
2018-06-14T07:14:58.033Z,30
2018-06-14T07:15:18.194Z,30
2018-06-14T07:15:38.346Z,30
2018-06-14T07:15:58.494Z,30
2018-06-14T07:16:18.656Z,30
2018-06-14T07:16:38.842Z,30
2018-06-14T07:16:59.000Z,30
2018-06-14T07:17:19.152Z,30
2018-06-14T07:17:39.310Z,30
2018-06-14T07:17:59.472Z,30
2018-06-14T07:18:19.680Z,30
2018-06-14T07:18:39.841Z,30
2018-06-14T07:18:59.993Z,30
2018-06-14T07:19:20.171Z,30
2018-06-14T07:19:40.393Z,30
2018-06-14T07:20:00.592Z,30
2018-06-14T07:20:20.776Z,30
2018-06-14T07:20:40.942Z,30
2018-06-14T07:21:01.118Z,30
2018-06-14T07:21:21.284Z,30
2018-06-14T07:21:41.626Z,30
2018-06-14T07:22:01.817Z,30
2018-06-14T07:22:21.992Z,30
2018-06-14T07:22:42.144Z,30
2018-06-14T07:23:02.325Z,30
2018-06-14T07:23:22.488Z,30
2018-06-14T07:23:42.702Z,30
2018-06-14T07:24:02.875Z,30
2018-06-14T07:24:23.027Z,30
2018-06-14T07:24:43.203Z,30
2018-06-14T07:25:03.375Z,35
2018-06-14T07:25:23.630Z,35
2018-06-14T07:25:43.799Z,35
2018-06-14T07:26:04.011Z,35
2018-06-14T07:26:24.176Z,35
2018-06-14T07:26:44.368Z,35
2018-06-14T07:27:05.441Z,35
2018-06-14T07:27:25.631Z,35
2018-06-14T07:27:45.786Z,35
2018-06-14T07:28:05.991Z,35
2018-06-14T07:28:26.162Z,35
2018-06-14T07:28:46.315Z,35
2018-06-14T07:29:06.500Z,35
2018-06-14T07:29:26.659Z,35
2018-06-14T07:29:47.678Z,35
2018-06-14T07:30:07.868Z,40
2018-06-14T07:30:28.051Z,40
2018-06-14T07:30:48.207Z,40
2018-06-14T07:31:08.381Z,40
2018-06-14T07:31:29.495Z,35
2018-06-14T07:31:50.236Z,35
2018-06-14T07:32:10.441Z,35
2018-06-14T07:32:30.581Z,35
2018-06-14T07:32:50.750Z,35
2018-06-14T07:33:10.924Z,35
2018-06-14T07:33:31.086Z,35
2018-06-14T07:33:51.264Z,35
2018-06-14T07:34:11.429Z,35
2018-06-14T07:34:31.590Z,40
2018-06-14T07:34:51.776Z,40
2018-06-14T07:35:11.972Z,40
2018-06-14T07:35:32.122Z,40
2018-06-14T07:35:52.319Z,40
2018-06-14T07:36:12.496Z,40
2018-06-14T07:36:32.659Z,40
2018-06-14T07:36:52.864Z,40
2018-06-14T07:37:13.026Z,40
2018-06-14T07:37:33.163Z,40
2018-06-14T07:37:53.315Z,40
2018-06-14T07:38:13.452Z,40
2018-06-14T07:38:33.622Z,40
2018-06-14T07:38:53.808Z,40
2018-06-14T07:39:14.037Z,40
2018-06-14T07:39:34.196Z,40
2018-06-14T07:39:54.374Z,40
2018-06-14T07:40:14.539Z,40
2018-06-14T07:40:34.722Z,40
2018-06-14T07:40:54.861Z,40
2018-06-14T07:41:15.013Z,40
2018-06-14T07:41:35.192Z,40
2018-06-14T07:41:55.341Z,40
2018-06-14T07:42:15.511Z,40
2018-06-14T07:42:35.667Z,40
2018-06-14T07:42:55.862Z,40
2018-06-14T07:43:16.119Z,40
2018-06-14T07:43:36.277Z,40
2018-06-14T07:43:56.473Z,40
2018-06-14T07:44:17.405Z,40
2018-06-14T07:44:37.559Z,35
2018-06-14T07:44:57.693Z,35
2018-06-14T07:45:17.847Z,35
2018-06-14T07:45:37.999Z,35
2018-06-14T07:45:58.203Z,35
2018-06-14T07:46:18.337Z,35
2018-06-14T07:46:38.498Z,35
2018-06-14T07:46:58.671Z,35
2018-06-14T07:47:18.841Z,35
2018-06-14T07:47:39.039Z,40
2018-06-14T07:47:59.230Z,40
2018-06-14T07:48:19.379Z,40
2018-06-14T07:48:39.528Z,40
2018-06-14T07:48:59.718Z,40
2018-06-14T07:49:19.883Z,40
2018-06-14T07:49:40.056Z,40
2018-06-14T07:50:00.240Z,40
2018-06-14T07:50:20.973Z,40
2018-06-14T07:50:41.227Z,40
2018-06-14T07:51:01.423Z,40
2018-06-14T07:51:21.555Z,40
2018-06-14T07:51:41.766Z,40
2018-06-14T07:52:01.950Z,40
2018-06-14T07:52:22.128Z,40
2018-06-14T07:52:42.382Z,40
2018-06-14T07:53:02.598Z,40
2018-06-14T07:53:22.787Z,40
2018-06-14T07:53:42.903Z,40
2018-06-14T07:54:03.099Z,40
2018-06-14T07:54:23.397Z,40
2018-06-14T07:54:44.252Z,40
2018-06-14T07:55:04.437Z,40
2018-06-14T07:55:24.634Z,40
2018-06-14T07:55:44.802Z,40
2018-06-14T07:56:04.993Z,40
2018-06-14T07:56:25.170Z,40
2018-06-14T07:56:45.377Z,40
2018-06-14T07:57:05.580Z,40
2018-06-14T07:57:25.750Z,40
2018-06-14T07:57:45.908Z,40
2018-06-14T07:58:06.136Z,40
2018-06-14T07:58:26.272Z,45
2018-06-14T07:58:46.444Z,45
2018-06-14T07:59:06.647Z,45
2018-06-14T07:59:26.836Z,45
2018-06-14T07:59:47.012Z,45
2018-06-14T08:00:07.292Z,45
2018-06-14T08:00:27.443Z,45
2018-06-14T08:00:47.607Z,45
2018-06-14T08:01:07.792Z,45
2018-06-14T08:01:27.966Z,45
2018-06-14T08:01:48.135Z,45
2018-06-14T08:02:08.294Z,45
2018-06-14T08:02:28.487Z,45
2018-06-14T08:02:48.683Z,45
2018-06-14T08:03:08.848Z,45
2018-06-14T08:03:29.093Z,40
2018-06-14T08:03:49.261Z,40
2018-06-14T08:04:09.474Z,40
2018-06-14T08:04:29.623Z,40
2018-06-14T08:04:49.818Z,35
2018-06-14T08:05:10.010Z,35
2018-06-14T08:05:30.171Z,40
2018-06-14T08:05:50.303Z,40
2018-06-14T08:06:10.510Z,40
2018-06-14T08:06:30.688Z,40
2018-06-14T08:06:50.826Z,35
2018-06-14T08:07:11.059Z,35
2018-06-14T08:07:31.232Z,35
2018-06-14T08:07:51.424Z,40
2018-06-14T08:08:11.748Z,40
2018-06-14T08:08:31.946Z,40
2018-06-14T08:08:52.103Z,40
2018-06-14T08:09:12.271Z,40
2018-06-14T08:09:32.454Z,40
2018-06-14T08:09:52.616Z,40
2018-06-14T08:10:12.791Z,40
2018-06-14T08:10:32.946Z,40
2018-06-14T08:10:53.112Z,40
2018-06-14T08:11:13.287Z,40
2018-06-14T08:11:33.430Z,40
2018-06-14T08:11:53.611Z,40
2018-06-14T08:12:13.779Z,40
2018-06-14T08:12:33.967Z,40
2018-06-14T08:12:54.122Z,40
2018-06-14T08:13:14.297Z,40
2018-06-14T08:13:34.482Z,45
2018-06-14T08:13:54.666Z,45
2018-06-14T08:14:14.836Z,45
2018-06-14T08:14:34.995Z,45
2018-06-14T08:14:55.135Z,45
2018-06-14T08:15:15.318Z,45
2018-06-14T08:15:35.454Z,45
2018-06-14T08:15:55.614Z,45
2018-06-14T08:16:15.784Z,45
2018-06-14T08:16:35.977Z,45
2018-06-14T08:16:56.131Z,45
2018-06-14T08:17:16.288Z,45
2018-06-14T08:17:36.490Z,45
2018-06-14T08:17:56.718Z,50
2018-06-14T08:18:16.888Z,50
2018-06-14T08:18:37.581Z,45
2018-06-14T08:18:57.752Z,45
2018-06-14T08:19:17.917Z,45
2018-06-14T08:19:38.087Z,50
2018-06-14T08:19:58.270Z,50
2018-06-14T08:20:18.527Z,50
2018-06-14T08:20:38.710Z,50
2018-06-14T08:20:58.868Z,50
2018-06-14T08:21:19.017Z,50
2018-06-14T08:21:39.188Z,50
2018-06-14T08:21:59.350Z,50
2018-06-14T08:22:19.496Z,50
2018-06-14T08:22:39.669Z,50
2018-06-14T08:22:59.838Z,50
2018-06-14T08:23:20.037Z,50
2018-06-14T08:23:40.213Z,50
2018-06-14T08:24:00.363Z,50
2018-06-14T08:24:20.531Z,50
2018-06-14T08:24:40.744Z,50
2018-06-14T08:25:00.917Z,50
2018-06-14T08:25:21.113Z,50
2018-06-14T08:25:41.323Z,55
2018-06-14T08:26:01.497Z,55
2018-06-14T08:26:21.660Z,55
2018-06-14T08:26:41.825Z,55
2018-06-14T08:27:02.018Z,55
2018-06-14T08:27:22.168Z,55
2018-06-14T08:27:42.310Z,55
2018-06-14T08:28:02.556Z,55
2018-06-14T08:28:22.724Z,55
2018-06-14T08:28:42.862Z,55
2018-06-14T08:29:03.003Z,55
2018-06-14T08:29:23.142Z,55
2018-06-14T08:29:43.329Z,55
2018-06-14T08:30:03.484Z,55
2018-06-14T08:30:23.712Z,55
2018-06-14T08:30:43.872Z,55
2018-06-14T08:31:04.017Z,55
2018-06-14T08:31:24.170Z,55
2018-06-14T08:31:44.408Z,55
2018-06-14T08:32:04.547Z,55
2018-06-14T08:32:24.708Z,55
2018-06-14T08:32:44.874Z,55
2018-06-14T08:33:05.057Z,55
2018-06-14T08:33:25.215Z,55
2018-06-14T08:33:45.474Z,55
2018-06-14T08:34:05.651Z,60
2018-06-14T08:34:25.880Z,60
2018-06-14T08:34:46.030Z,60
2018-06-14T08:35:06.216Z,60
2018-06-14T08:35:26.390Z,60
2018-06-14T08:35:46.570Z,60
2018-06-14T08:36:06.759Z,60
2018-06-14T08:36:26.904Z,60
2018-06-14T08:36:47.072Z,60
2018-06-14T08:37:07.242Z,60
2018-06-14T08:37:27.406Z,60
2018-06-14T08:37:47.590Z,60
2018-06-14T08:38:07.828Z,60
2018-06-14T08:38:27.962Z,60
2018-06-14T08:38:48.116Z,60
2018-06-14T08:39:08.306Z,65
2018-06-14T08:39:28.470Z,60
2018-06-14T08:39:48.645Z,60
2018-06-14T08:40:08.857Z,60
2018-06-14T08:40:29.005Z,60
2018-06-14T08:40:49.171Z,60
2018-06-14T08:41:09.341Z,60
2018-06-14T08:41:29.483Z,60
2018-06-14T08:41:49.663Z,60
2018-06-14T08:42:09.822Z,60
2018-06-14T08:42:29.996Z,60
2018-06-14T08:42:50.151Z,60
2018-06-14T08:43:10.315Z,60
2018-06-14T08:43:30.490Z,60
2018-06-14T08:43:50.660Z,60
2018-06-14T08:44:10.812Z,60
2018-06-14T08:44:30.996Z,60
2018-06-14T08:44:51.195Z,60
2018-06-14T08:45:11.322Z,60
2018-06-14T08:45:31.526Z,60
2018-06-14T08:45:51.685Z,60
2018-06-14T08:46:11.873Z,60
2018-06-14T08:46:32.051Z,60
2018-06-14T08:46:52.233Z,60
2018-06-14T08:47:12.418Z,60
2018-06-14T08:47:32.579Z,60
2018-06-14T08:47:52.761Z,60
2018-06-14T08:48:12.933Z,60
2018-06-14T08:48:33.090Z,60
2018-06-14T08:48:53.277Z,60
2018-06-14T08:49:13.450Z,60
2018-06-14T08:49:33.596Z,65
2018-06-14T08:49:53.755Z,65
2018-06-14T08:50:13.908Z,65
2018-06-14T08:50:34.071Z,65
2018-06-14T08:50:54.248Z,65
2018-06-14T08:51:14.400Z,65
2018-06-14T08:51:34.561Z,65
2018-06-14T08:51:54.767Z,65
2018-06-14T08:52:14.971Z,65
2018-06-14T08:52:35.110Z,65
2018-06-14T08:52:55.276Z,65
2018-06-14T08:53:15.453Z,65
2018-06-14T08:53:35.613Z,65
2018-06-14T08:53:55.770Z,70
2018-06-14T08:54:15.942Z,70
2018-06-14T08:54:36.088Z,70
2018-06-14T08:54:56.229Z,70
2018-06-14T08:55:16.414Z,65
2018-06-14T08:55:36.581Z,65
2018-06-14T08:55:56.761Z,65
2018-06-14T08:56:16.923Z,65
2018-06-14T08:56:37.108Z,65
2018-06-14T08:56:57.257Z,65
2018-06-14T08:57:17.411Z,65
2018-06-14T08:57:37.563Z,65
2018-06-14T08:57:57.723Z,70
2018-06-14T08:58:17.940Z,70
2018-06-14T08:58:38.106Z,70
2018-06-14T08:58:58.280Z,70
2018-06-14T08:59:18.449Z,65
2018-06-14T08:59:38.609Z,65
2018-06-14T08:59:58.801Z,65
2018-06-14T09:00:18.971Z,65
2018-06-14T09:00:39.112Z,65
2018-06-14T09:00:59.278Z,65
2018-06-14T09:01:19.437Z,65
2018-06-14T09:01:39.614Z,65
2018-06-14T09:01:59.771Z,65
2018-06-14T09:02:19.938Z,65
2018-06-14T09:02:40.119Z,65
2018-06-14T09:03:00.343Z,65
2018-06-14T09:03:20.562Z,65
2018-06-14T09:03:40.732Z,65
2018-06-14T09:04:00.894Z,65
2018-06-14T09:04:21.068Z,65
2018-06-14T09:04:41.248Z,70
2018-06-14T09:05:01.402Z,70
2018-06-14T09:05:21.553Z,70
2018-06-14T09:05:41.707Z,70
2018-06-14T09:06:02.796Z,70
2018-06-14T09:06:22.914Z,70
2018-06-14T09:06:43.073Z,70
2018-06-14T09:07:03.219Z,70
2018-06-14T09:07:23.388Z,70
2018-06-14T09:07:43.538Z,70
2018-06-14T09:08:03.666Z,70
2018-06-14T09:08:23.860Z,70
2018-06-14T09:08:44.012Z,70
2018-06-14T09:09:04.190Z,70
2018-06-14T09:09:24.359Z,75
2018-06-14T09:09:44.545Z,75
2018-06-14T09:10:04.687Z,75
2018-06-14T09:10:24.857Z,75
2018-06-14T09:10:45.022Z,75
2018-06-14T09:11:05.177Z,75
2018-06-14T09:11:25.352Z,75
2018-06-14T09:11:45.528Z,75
2018-06-14T09:12:05.723Z,80
2018-06-14T09:12:25.874Z,80
2018-06-14T09:12:46.039Z,80
2018-06-14T09:13:06.203Z,80
2018-06-14T09:13:26.377Z,80
2018-06-14T09:13:46.555Z,80
2018-06-14T09:14:06.823Z,80
2018-06-14T09:14:26.969Z,80
2018-06-14T09:14:47.148Z,80
2018-06-14T09:15:07.309Z,80
2018-06-14T09:15:27.464Z,80
2018-06-14T09:15:47.641Z,80
2018-06-14T09:16:07.789Z,80
2018-06-14T09:16:27.940Z,80
2018-06-14T09:16:48.133Z,80
2018-06-14T09:17:08.292Z,75
2018-06-14T09:17:28.452Z,75
2018-06-14T09:17:48.655Z,75
2018-06-14T09:18:08.793Z,75
2018-06-14T09:18:28.986Z,75
2018-06-14T09:18:49.179Z,75
2018-06-14T09:19:09.350Z,75
2018-06-14T09:19:29.520Z,75
2018-06-14T09:19:49.715Z,75
2018-06-14T09:20:09.876Z,75
2018-06-14T09:20:30.072Z,75
2018-06-14T09:20:50.255Z,75
2018-06-14T09:21:10.432Z,70
2018-06-14T09:21:30.604Z,70
2018-06-14T09:21:50.796Z,70
2018-06-14T09:22:10.941Z,65
2018-06-14T09:22:31.117Z,60
2018-06-14T09:22:51.306Z,60
2018-06-14T09:23:11.455Z,55
2018-06-14T09:23:31.616Z,50
2018-06-14T09:23:51.784Z,50
2018-06-14T09:24:11.959Z,45
2018-06-14T09:24:32.123Z,50
2018-06-14T09:24:52.277Z,45
2018-06-14T09:25:12.428Z,50
2018-06-14T09:25:32.604Z,45
2018-06-14T09:25:52.806Z,50
2018-06-14T09:26:12.937Z,45
2018-06-14T09:26:33.084Z,45
2018-06-14T09:26:53.251Z,45
2018-06-14T09:27:13.406Z,50
2018-06-14T09:27:33.565Z,50
2018-06-14T09:27:53.709Z,50
2018-06-14T09:28:13.869Z,50
2018-06-14T09:28:34.031Z,50
2018-06-14T09:28:54.198Z,55
2018-06-14T09:29:14.367Z,55
2018-06-14T09:29:34.539Z,60
2018-06-14T09:29:54.758Z,60
2018-06-14T09:30:15.031Z,65
2018-06-14T09:30:35.209Z,65
2018-06-14T09:30:55.392Z,70
2018-06-14T09:31:15.563Z,70
2018-06-14T09:31:35.710Z,75
2018-06-14T09:31:55.888Z,75
2018-06-14T09:32:16.061Z,75
2018-06-14T09:32:36.193Z,75
2018-06-14T09:32:56.371Z,80
2018-06-14T09:33:16.549Z,80
2018-06-14T09:33:36.727Z,85
2018-06-14T09:33:56.861Z,85
2018-06-14T09:34:17.013Z,85
2018-06-14T09:34:37.210Z,85
2018-06-14T09:34:57.340Z,85
2018-06-14T09:35:17.504Z,85
2018-06-14T09:35:37.660Z,85
2018-06-14T09:35:57.841Z,85
2018-06-14T09:36:18.007Z,85
2018-06-14T09:36:38.185Z,85
2018-06-14T09:36:58.348Z,85
2018-06-14T09:37:18.516Z,85
2018-06-14T09:37:38.684Z,85
2018-06-14T09:37:58.860Z,85
2018-06-14T09:38:19.030Z,80
2018-06-14T09:38:39.186Z,80
2018-06-14T09:38:59.344Z,80
2018-06-14T09:39:19.505Z,80
2018-06-14T09:39:39.654Z,80
2018-06-14T09:39:59.816Z,80
2018-06-14T09:40:19.988Z,80
2018-06-14T09:40:40.142Z,80
2018-06-14T09:41:00.311Z,75
2018-06-14T09:41:20.469Z,75
2018-06-14T09:41:40.635Z,75
2018-06-14T09:42:00.795Z,75
2018-06-14T09:42:20.963Z,75
2018-06-14T09:42:41.148Z,70
2018-06-14T09:43:01.764Z,70
2018-06-14T09:43:23.275Z,65
2018-06-14T09:43:43.490Z,65
2018-06-14T09:44:03.662Z,60
2018-06-14T09:44:23.817Z,60
2018-06-14T09:44:43.998Z,60
2018-06-14T09:45:04.186Z,55
2018-06-14T09:45:24.364Z,55
2018-06-14T09:45:44.512Z,50
2018-06-14T09:46:04.651Z,50
2018-06-14T09:46:24.820Z,50
2018-06-14T09:46:44.984Z,50
2018-06-14T09:47:05.141Z,50
2018-06-14T09:47:25.312Z,50
2018-06-14T09:47:45.444Z,50
2018-06-14T09:48:05.602Z,50
2018-06-14T09:48:25.807Z,45
2018-06-14T09:48:45.956Z,45
2018-06-14T09:49:06.107Z,45
2018-06-14T09:49:26.258Z,45
2018-06-14T09:49:46.428Z,45
2018-06-14T09:50:06.624Z,45
2018-06-14T09:50:26.790Z,50
2018-06-14T09:50:46.969Z,50
2018-06-14T09:51:07.138Z,50
2018-06-14T09:51:27.301Z,50
2018-06-14T09:51:48.262Z,50
2018-06-14T09:52:08.433Z,50
2018-06-14T09:52:28.589Z,45
2018-06-14T09:52:48.764Z,45
2018-06-14T09:53:08.928Z,45
2018-06-14T09:53:29.097Z,40
2018-06-14T09:53:49.264Z,40
2018-06-14T09:54:09.436Z,40
2018-06-14T09:54:29.579Z,40
2018-06-14T09:54:49.728Z,40
2018-06-14T09:55:09.906Z,40
2018-06-14T09:55:30.048Z,40
2018-06-14T09:55:50.208Z,40
2018-06-14T09:56:10.404Z,40
2018-06-14T09:56:30.570Z,40
2018-06-14T09:56:50.738Z,40
2018-06-14T09:57:10.886Z,40
2018-06-14T09:57:31.109Z,40
2018-06-14T09:57:51.270Z,40
2018-06-14T09:58:11.436Z,40
2018-06-14T09:58:31.601Z,40
2018-06-14T09:58:51.754Z,45
2018-06-14T09:59:11.904Z,50
2018-06-14T09:59:32.125Z,45
2018-06-14T09:59:52.305Z,45
2018-06-14T10:00:12.500Z,45
2018-06-14T10:00:32.761Z,45
2018-06-14T10:00:52.939Z,45
2018-06-14T10:01:13.092Z,45
2018-06-14T10:01:33.281Z,45
2018-06-14T10:01:53.454Z,50
2018-06-14T10:02:13.705Z,45
2018-06-14T10:02:33.892Z,45
2018-06-14T10:02:54.094Z,45
2018-06-14T10:03:14.251Z,45
2018-06-14T10:03:34.916Z,45
2018-06-14T10:03:55.069Z,50
2018-06-14T10:04:16.584Z,50
2018-06-14T10:04:36.791Z,50
2018-06-14T10:04:57.912Z,50
2018-06-14T10:05:18.083Z,55
2018-06-14T10:05:38.214Z,55
2018-06-14T10:05:58.464Z,55
2018-06-14T10:06:18.635Z,55
2018-06-14T10:06:38.823Z,60
2018-06-14T10:06:58.971Z,60
2018-06-14T10:07:19.139Z,60
2018-06-14T10:07:39.554Z,60
2018-06-14T10:08:00.307Z,60
2018-06-14T10:08:20.504Z,65
2018-06-14T10:08:40.669Z,65
2018-06-14T10:09:00.815Z,65
2018-06-14T10:09:20.971Z,65
2018-06-14T10:09:41.174Z,65
2018-06-14T10:10:01.350Z,70
2018-06-14T10:10:21.528Z,70
2018-06-14T10:10:41.713Z,70
2018-06-14T10:11:01.834Z,70
2018-06-14T10:11:21.993Z,75
2018-06-14T10:11:42.155Z,75
2018-06-14T10:12:02.307Z,75
2018-06-14T10:12:22.468Z,75
2018-06-14T10:12:42.668Z,75
2018-06-14T10:13:02.850Z,75
2018-06-14T10:13:23.034Z,75
2018-06-14T10:13:43.206Z,75
2018-06-14T10:14:03.375Z,75
2018-06-14T10:14:23.543Z,75
2018-06-14T10:14:43.702Z,80
2018-06-14T10:15:03.862Z,80
2018-06-14T10:15:24.012Z,80
2018-06-14T10:15:45.692Z,80
2018-06-14T10:16:05.926Z,80
2018-06-14T10:16:26.074Z,80
2018-06-14T10:16:46.299Z,80
2018-06-14T10:17:06.463Z,80
2018-06-14T10:17:26.631Z,80
2018-06-14T10:17:46.840Z,80
2018-06-14T10:18:07.030Z,85
2018-06-14T10:18:27.790Z,85
2018-06-14T10:18:48.077Z,85
2018-06-14T10:19:08.324Z,85
2018-06-14T10:19:28.503Z,85
2018-06-14T10:19:48.661Z,85
2018-06-14T10:20:08.785Z,85
2018-06-14T10:20:28.960Z,85
2018-06-14T10:20:49.132Z,85
2018-06-14T10:21:10.208Z,80
2018-06-14T10:21:30.415Z,85
2018-06-14T10:21:50.659Z,80
2018-06-14T10:22:10.725Z,80
2018-06-14T10:22:30.895Z,80
2018-06-14T10:22:51.074Z,80
2018-06-14T10:23:11.232Z,80
2018-06-14T10:23:31.389Z,80
2018-06-14T10:23:51.546Z,80
2018-06-14T10:24:11.741Z,80
2018-06-14T10:24:31.897Z,80
2018-06-14T10:24:52.054Z,85
2018-06-14T10:25:12.234Z,85
2018-06-14T10:25:32.406Z,80
2018-06-14T10:25:53.217Z,80
2018-06-14T10:26:13.377Z,80
2018-06-14T10:26:33.581Z,80
2018-06-14T10:26:53.743Z,80
2018-06-14T10:27:13.880Z,80
2018-06-14T10:27:34.039Z,80
2018-06-14T10:27:54.193Z,80
2018-06-14T10:28:14.341Z,80
2018-06-14T10:28:34.517Z,80
2018-06-14T10:28:54.679Z,80
2018-06-14T10:29:14.883Z,80
2018-06-14T10:29:35.096Z,80
2018-06-14T10:29:55.256Z,80
2018-06-14T10:30:15.433Z,80
2018-06-14T10:30:35.638Z,80
2018-06-14T10:30:55.760Z,80
2018-06-14T10:31:15.929Z,80
2018-06-14T10:31:36.088Z,80
2018-06-14T10:31:56.260Z,80
2018-06-14T10:32:16.451Z,80
2018-06-14T10:32:36.631Z,80
2018-06-14T10:32:56.783Z,75
2018-06-14T10:33:16.946Z,75
2018-06-14T10:33:37.136Z,75
2018-06-14T10:33:57.335Z,75
2018-06-14T10:34:17.498Z,75
2018-06-14T10:34:37.706Z,75
2018-06-14T10:34:57.869Z,75
2018-06-14T10:35:18.027Z,75
2018-06-14T10:35:38.208Z,75
2018-06-14T10:35:58.368Z,75
2018-06-14T10:36:18.598Z,75
2018-06-14T10:36:38.765Z,75
2018-06-14T10:36:58.908Z,75
2018-06-14T10:37:19.141Z,75
2018-06-14T10:37:39.237Z,75
2018-06-14T10:37:59.395Z,75
2018-06-14T10:38:19.577Z,75
2018-06-14T10:38:39.736Z,75
2018-06-14T10:38:59.899Z,75
2018-06-14T10:39:20.052Z,75
2018-06-14T10:39:40.269Z,75
2018-06-14T10:40:00.419Z,75
2018-06-14T10:40:20.536Z,80
2018-06-14T10:40:40.704Z,80
2018-06-14T10:41:00.865Z,80
2018-06-14T10:41:21.005Z,80
2018-06-14T10:41:41.163Z,80
2018-06-14T10:42:01.299Z,80
2018-06-14T10:42:21.475Z,80
2018-06-14T10:42:41.651Z,80
2018-06-14T10:43:01.821Z,80
2018-06-14T10:43:21.994Z,80
2018-06-14T10:43:42.292Z,85
2018-06-14T10:44:02.462Z,85
2018-06-14T10:44:22.667Z,85
2018-06-14T10:44:42.842Z,85
2018-06-14T10:45:02.973Z,85
2018-06-14T10:45:23.133Z,85
2018-06-14T10:45:43.304Z,85
2018-06-14T10:46:03.461Z,85
2018-06-14T10:46:23.665Z,85
2018-06-14T10:46:43.838Z,90
2018-06-14T10:47:03.994Z,90
2018-06-14T10:47:24.181Z,90
2018-06-14T10:47:44.361Z,90
2018-06-14T10:48:04.640Z,90
2018-06-14T10:48:24.809Z,90
2018-06-14T10:48:44.953Z,90
2018-06-14T10:49:05.120Z,90
2018-06-14T10:49:25.302Z,90
2018-06-14T10:49:45.474Z,90
2018-06-14T10:50:05.646Z,90
2018-06-14T10:50:25.817Z,90
2018-06-14T10:50:45.982Z,90
2018-06-14T10:51:06.126Z,90
2018-06-14T10:51:26.296Z,90
2018-06-14T10:51:46.466Z,90
2018-06-14T10:52:06.648Z,90
2018-06-14T10:52:26.875Z,90
2018-06-14T10:52:47.073Z,90
2018-06-14T10:53:07.215Z,90
2018-06-14T10:53:27.382Z,85
2018-06-14T10:53:47.578Z,85
2018-06-14T10:54:07.775Z,85
2018-06-14T10:54:27.931Z,85
2018-06-14T10:54:48.104Z,85
2018-06-14T10:55:08.352Z,85
2018-06-14T10:55:28.498Z,85
2018-06-14T10:55:48.684Z,85
2018-06-14T10:56:08.861Z,85
2018-06-14T10:56:29.036Z,85
2018-06-14T10:56:49.172Z,85
2018-06-14T10:57:10.253Z,85
2018-06-14T10:57:30.439Z,85
2018-06-14T10:57:50.631Z,90
2018-06-14T10:58:10.811Z,85
2018-06-14T10:58:31.004Z,85
2018-06-14T10:58:51.197Z,85
2018-06-14T10:59:11.366Z,85
2018-06-14T10:59:31.580Z,85
2018-06-14T10:59:51.725Z,85
2018-06-14T11:00:12.025Z,85
2018-06-14T11:00:32.195Z,85
2018-06-14T11:00:52.397Z,85
2018-06-14T11:01:12.590Z,85
2018-06-14T11:01:32.773Z,85
2018-06-14T11:01:52.989Z,85
2018-06-14T11:02:13.140Z,85
2018-06-14T11:02:33.270Z,85
2018-06-14T11:02:53.441Z,90
2018-06-14T11:03:13.629Z,90
2018-06-14T11:03:33.850Z,85
2018-06-14T11:03:53.996Z,90
2018-06-14T11:04:14.177Z,85
2018-06-14T11:04:34.351Z,85
2018-06-14T11:04:54.523Z,85
2018-06-14T11:05:14.719Z,85
2018-06-14T11:05:34.889Z,85
2018-06-14T11:05:55.128Z,85
2018-06-14T11:06:15.321Z,85
2018-06-14T11:06:35.481Z,85
2018-06-14T11:06:56.504Z,85
2018-06-14T11:07:16.660Z,85
2018-06-14T11:07:36.838Z,85
2018-06-14T11:07:57.010Z,85
2018-06-14T11:08:17.187Z,85
2018-06-14T11:08:37.485Z,85
2018-06-14T11:08:57.697Z,90
2018-06-14T11:09:17.878Z,90
2018-06-14T11:09:38.095Z,90
2018-06-14T11:09:58.328Z,90
2018-06-14T11:10:18.485Z,90
2018-06-14T11:10:38.703Z,85
2018-06-14T11:10:58.915Z,85
2018-06-14T11:11:19.147Z,85
2018-06-14T11:11:39.360Z,85
2018-06-14T11:11:59.554Z,95
2018-06-14T11:12:19.787Z,95
2018-06-14T11:12:39.961Z,90
2018-06-14T11:13:00.179Z,90
2018-06-14T11:13:20.380Z,90
2018-06-14T11:13:40.532Z,90
2018-06-14T11:14:00.728Z,90
2018-06-14T11:14:20.969Z,90
2018-06-14T11:14:41.131Z,100
2018-06-14T11:15:01.311Z,95
2018-06-14T11:15:21.455Z,85
2018-06-14T11:15:41.635Z,85
2018-06-14T11:16:01.827Z,85
2018-06-14T11:16:22.045Z,85
2018-06-14T11:16:42.286Z,85
2018-06-14T11:17:02.495Z,85
2018-06-14T11:17:22.744Z,85
2018-06-14T11:17:42.984Z,85
2018-06-14T11:18:03.166Z,85
2018-06-14T11:18:23.344Z,80
2018-06-14T11:18:43.582Z,80
2018-06-14T11:19:03.793Z,80
2018-06-14T11:19:24.016Z,80
2018-06-14T11:19:44.200Z,80
2018-06-14T11:20:04.399Z,80
2018-06-14T11:20:24.733Z,75
2018-06-14T11:20:44.587Z,75
2018-06-14T11:21:04.811Z,75
2018-06-14T11:21:25.002Z,75
2018-06-14T11:21:45.246Z,80
2018-06-14T11:22:05.449Z,75
2018-06-14T11:22:25.700Z,75
2018-06-14T11:22:45.913Z,75
2018-06-14T11:23:06.137Z,70
2018-06-14T11:23:26.317Z,65
2018-06-14T11:23:46.500Z,60
2018-06-14T11:24:06.655Z,55
2018-06-14T11:24:26.850Z,55
2018-06-14T11:24:47.058Z,55
2018-06-14T11:25:07.278Z,50
2018-06-14T11:25:27.492Z,50
2018-06-14T11:25:47.720Z,50
2018-06-14T11:26:07.915Z,50
2018-06-14T11:26:28.901Z,50
2018-06-14T11:26:49.097Z,50
2018-06-14T11:27:09.346Z,50
2018-06-14T11:27:29.545Z,45
2018-06-14T11:27:49.689Z,45
2018-06-14T11:28:09.897Z,45
2018-06-14T11:28:30.125Z,50
2018-06-14T11:28:50.319Z,50
2018-06-14T11:29:10.512Z,50
2018-06-14T11:29:30.730Z,50
2018-06-14T11:29:50.889Z,55
2018-06-14T11:30:11.139Z,55
2018-06-14T11:30:31.937Z,55
2018-06-14T11:30:52.109Z,55
2018-06-14T11:31:12.550Z,60
2018-06-14T11:31:32.771Z,60
2018-06-14T11:31:52.902Z,60
2018-06-14T11:32:13.090Z,65
2018-06-14T11:32:33.306Z,65
2018-06-14T11:32:53.517Z,65
2018-06-14T11:33:13.801Z,70
2018-06-14T11:33:34.006Z,75
2018-06-14T11:33:54.182Z,70
2018-06-14T11:34:14.397Z,75
2018-06-14T11:34:34.543Z,75
2018-06-14T11:34:54.709Z,75
2018-06-14T11:35:15.926Z,75
2018-06-14T11:35:36.129Z,75
2018-06-14T11:35:56.369Z,75
2018-06-14T11:36:16.603Z,75
2018-06-14T11:36:36.761Z,75
2018-06-14T11:36:56.943Z,80
2018-06-14T11:37:17.157Z,75
2018-06-14T11:37:37.349Z,75
2018-06-14T11:37:57.571Z,75
2018-06-14T11:38:17.724Z,75
2018-06-14T11:38:37.969Z,75
2018-06-14T11:38:58.218Z,75
2018-06-14T11:39:18.387Z,75
2018-06-14T11:39:38.656Z,75
2018-06-14T11:39:58.870Z,75
2018-06-14T11:40:19.085Z,75
2018-06-14T11:40:39.264Z,75
2018-06-14T11:40:59.507Z,75
2018-06-14T11:41:19.672Z,75
2018-06-14T11:41:39.876Z,75
2018-06-14T11:42:00.046Z,75
2018-06-14T11:42:20.201Z,75
2018-06-14T11:42:40.381Z,75
2018-06-14T11:43:00.587Z,75
2018-06-14T11:43:20.842Z,75
2018-06-14T11:43:41.038Z,75
2018-06-14T11:44:01.243Z,70
2018-06-14T11:44:21.500Z,70